Terminal Aerodrome Forecast
Issued by NWS Melbourne, FL

Home | Current Version | Previous Version | Text Only | Print | Product List | Glossary On
Versions: 1 2 3 4 5 6 7 8 9 10 11 12 13 14 15 16 17 18
000
FTUS42 KMLB 182000 AAA
TAFDAB
TAF AMD
KDAB 182057Z 1821/1918 17011KT P6SM VCTS SCT020 BKN040CB
      TEMPO 1822/1823 26018G30KT 2SM +TSRA BKN020CB
     FM190300 16008KT P6SM VCSH BKN030 OVC050
     FM191300 22014KT P6SM VCSH SCT015 OVC040=

USA.gov is the U.S. government's official web portal to all federal, state and local government web resources and services.